Time;durP1;ratioP1;P1;durP2;ratioP2;P2;SDS_P1;SDS_P2;PMS_P1;PMS_P2;Temp;Humidity;BMP_temperature;BMP_pressure;BME280_temperature;BME280_humidity;BME280_pressure;Samples;Min_cycle;Max_cycle;Signal;HPM_P1;HPM_P2
2022/09/18 00:01:23;;;;;;;7.20;1.10;;;10.50;99.90;;;;;;5097423;28;20495;-72
2022/09/18 00:03:50;;;;;;;6.40;1.08;;;10.40;99.90;;;;;;5095969;28;20493;-72
2022/09/18 00:06:22;;;;;;;10.57;1.50;;;10.40;99.90;;;;;;5095649;28;20039;-72
2022/09/18 00:08:52;;;;;;;;;;;10.40;99.90;;;;;;5113603;28;20046;-72
2022/09/18 00:11:20;;;;;;;5.95;1.35;;;10.40;99.90;;;;;;5116184;28;19920;-72
2022/09/18 00:13:45;;;;;;;7.93;1.52;;;10.40;99.90;;;;;;5114874;28;20518;-72
2022/09/18 00:16:14;;;;;;;7.10;1.10;;;10.40;99.90;;;;;;5099304;28;20079;-73
2022/09/18 00:18:40;;;;;;;6.78;1.27;;;10.40;99.90;;;;;;5095715;28;20082;-73
2022/09/18 00:21:08;;;;;;;10.25;1.45;;;10.40;99.90;;;;;;5107437;28;20039;-73
2022/09/18 00:23:34;;;;;;;5.70;1.10;;;10.40;99.90;;;;;;5116067;28;20097;-73
2022/09/18 00:26:00;;;;;;;5.75;1.10;;;10.30;99.90;;;;;;5109300;28;20549;-71
2022/09/18 00:28:29;;;;;;;8.85;1.27;;;10.30;99.90;;;;;;5095795;28;20036;-72
2022/09/18 00:30:55;;;;;;;10.77;1.73;;;10.30;99.90;;;;;;5115854;28;20479;-73
2022/09/18 00:33:21;;;;;;;11.52;1.77;;;10.20;99.90;;;;;;5115735;28;20134;-73
2022/09/18 00:35:46;;;;;;;9.75;1.70;;;10.20;99.90;;;;;;5114462;28;20063;-73
2022/09/18 00:38:12;;;;;;;10.88;2.05;;;10.20;99.90;;;;;;5115837;28;20035;-72
2022/09/18 00:40:37;;;;;;;7.50;2.03;;;10.30;99.90;;;;;;5105547;28;20028;-72
2022/09/18 00:43:23;;;;;;;9.45;1.40;;;10.30;99.90;;;;;;5095337;28;20220;-73
2022/09/18 00:46:00;;;;;;;12.15;1.58;;;10.30;99.90;;;;;;5106872;28;20039;-72
2022/09/18 00:48:47;;;;;;;7.30;1.20;;;10.30;99.90;;;;;;5114451;28;20039;-72
2022/09/18 00:51:15;;;;;;;9.05;1.27;;;10.40;99.90;;;;;;5105464;28;20492;-72
2022/09/18 00:53:45;;;;;;;5.20;1.10;;;10.40;99.90;;;;;;5114397;28;20122;-73
2022/09/18 00:56:14;;;;;;;10.20;1.23;;;10.40;99.90;;;;;;5106397;28;20044;-73
2022/09/18 00:58:40;;;;;;;8.50;1.33;;;10.30;99.90;;;;;;5094772;28;20036;-73
2022/09/18 01:01:07;;;;;;;5.93;1.10;;;10.30;99.90;;;;;;5095102;28;20127;-73
2022/09/18 01:03:34;;;;;;;7.18;1.30;;;10.30;99.90;;;;;;5094932;28;20097;-73
2022/09/18 01:06:09;;;;;;;7.00;1.30;;;10.30;99.90;;;;;;5098427;28;20385;-73
2022/09/18 01:09:03;;;;;;;8.27;1.35;;;10.20;99.90;;;;;;5094475;28;20488;-73
2022/09/18 01:11:34;;;;;;;7.80;1.48;;;10.20;99.90;;;;;;5105503;28;20039;-73
2022/09/18 01:14:08;;;;;;;6.00;1.70;;;10.20;99.90;;;;;;5092866;28;20043;-73
2022/09/18 01:16:40;;;;;;;9.18;1.45;;;10.10;99.90;;;;;;5111311;28;20036;-73
2022/09/18 01:19:47;;;;;;;10.02;1.60;;;10.20;99.90;;;;;;5112652;28;20032;-73
2022/09/18 01:22:53;;;;;;;13.25;1.75;;;10.30;99.90;;;;;;5099061;28;20067;-73
2022/09/18 01:25:47;;;;;;;10.18;1.55;;;10.30;99.90;;;;;;5100613;28;20110;-73
2022/09/18 01:28:33;;;;;;;8.48;1.30;;;10.30;99.90;;;;;;5086616;28;20040;-73
2022/09/18 01:31:06;;;;;;;9.45;1.98;;;10.30;99.90;;;;;;5093860;28;20044;-73
2022/09/18 01:33:47;;;;;;;8.70;1.42;;;10.30;99.90;;;;;;5094230;28;20365;-73
2022/09/18 01:36:15;;;;;;;12.23;1.75;;;10.30;99.90;;;;;;5107405;28;20039;-74
2022/09/18 01:38:52;;;;;;;5.93;1.50;;;10.30;99.90;;;;;;5113333;28;20054;-74
2022/09/18 01:41:26;;;;;;;9.88;1.23;;;10.40;99.90;;;;;;5114597;28;20043;-74
2022/09/18 01:44:04;;;;;;;5.78;1.20;;;10.40;99.90;;;;;;5114467;28;20036;-74
2022/09/18 01:46:31;;;;;;;9.65;1.52;;;10.40;99.90;;;;;;5111977;28;20043;-74
2022/09/18 01:49:06;;;;;;;8.98;1.67;;;10.40;99.90;;;;;;5113323;28;20062;-74
2022/09/18 01:51:42;;;;;;;6.43;1.25;;;10.40;99.90;;;;;;5113345;28;20119;-75
2022/09/18 01:54:14;;;;;;;9.18;1.48;;;10.40;99.90;;;;;;5103185;28;20500;-74
2022/09/18 01:56:53;;;;;;;8.25;1.38;;;10.40;99.90;;;;;;5113083;28;20043;-74
2022/09/18 01:59:25;;;;;;;5.93;1.10;;;10.40;99.90;;;;;;5114337;28;20066;-74
2022/09/18 02:01:56;;;;;;;9.40;2.08;;;10.30;99.90;;;;;;5114217;28;20064;-73
2022/09/18 02:04:26;;;;;;;9.23;1.40;;;10.30;99.90;;;;;;5112678;28;20504;-73
2022/09/18 02:07:06;;;;;;;12.05;1.40;;;10.30;99.90;;;;;;5114004;28;20530;-73
2022/09/18 02:09:32;;;;;;;7.05;1.45;;;10.30;99.90;;;;;;5113164;28;20384;-73
2022/09/18 02:12:01;;;;;;;6.57;1.27;;;10.20;99.90;;;;;;5093862;28;20036;-73
2022/09/18 02:14:37;;;;;;;9.70;1.65;;;10.20;99.90;;;;;;5095034;28;20040;-74
2022/09/18 02:17:14;;;;;;;12.45;2.08;;;10.20;99.90;;;;;;5113895;28;20050;-73
2022/09/18 02:19:45;;;;;;;6.72;1.48;;;10.30;99.90;;;;;;5111414;28;20039;-73
2022/09/18 02:22:15;;;;;;;11.52;1.75;;;10.30;99.90;;;;;;5112946;28;20493;-73
2022/09/18 02:24:44;;;;;;;7.38;1.23;;;10.30;99.90;;;;;;5093232;28;20404;-73
2022/09/18 02:27:12;;;;;;;10.68;1.70;;;10.30;99.90;;;;;;5099763;28;20492;-73
2022/09/18 02:29:39;;;;;;;10.10;1.60;;;10.30;99.90;;;;;;5102146;28;20036;-73
2022/09/18 02:32:05;;;;;;;10.38;1.20;;;10.30;99.90;;;;;;5093399;28;20121;-73
2022/09/18 02:34:31;;;;;;;8.15;1.30;;;10.30;99.90;;;;;;5094517;28;20112;-73
2022/09/18 02:37:32;;;;;;;10.02;2.00;;;10.30;99.90;;;;;;5095372;28;20058;-74
2022/09/18 02:40:20;;;;;;;7.35;1.40;;;10.30;99.90;;;;;;5112697;28;20487;-74
2022/09/18 02:43:11;;;;;;;10.70;1.30;;;10.30;99.90;;;;;;5108259;28;20058;-73
2022/09/18 02:45:57;;;;;;;11.30;1.40;;;10.30;99.90;;;;;;5099797;28;20028;-73
2022/09/18 02:48:40;;;;;;;8.70;1.40;;;10.30;99.90;;;;;;5092283;28;20570;-73
2022/09/18 02:51:22;;;;;;;11.85;1.30;;;10.30;99.90;;;;;;5103020;28;20082;-73
2022/09/18 02:54:06;;;;;;;8.63;1.83;;;10.30;99.90;;;;;;5106181;28;20118;-74
2022/09/18 02:56:41;;;;;;;8.32;1.25;;;10.30;99.90;;;;;;5093192;28;20440;-73
2022/09/18 02:59:28;;;;;;;7.88;1.20;;;10.30;99.90;;;;;;5093122;28;20047;-74
2022/09/18 03:01:55;;;;;;;11.70;1.75;;;10.30;99.90;;;;;;5112780;28;20054;-73
2022/09/18 03:04:24;;;;;;;6.93;1.33;;;10.30;99.90;;;;;;5112173;28;20060;-73
2022/09/18 03:06:50;;;;;;;6.80;1.30;;;10.30;99.90;;;;;;5113426;28;20098;-73
2022/09/18 03:09:16;;;;;;;13.48;1.70;;;10.30;99.90;;;;;;5113247;28;20079;-73
2022/09/18 03:11:41;;;;;;;8.48;1.73;;;10.40;99.90;;;;;;5109735;28;20040;-73
2022/09/18 03:14:07;;;;;;;8.95;1.42;;;10.40;99.90;;;;;;5093437;28;20036;-72
2022/09/18 03:16:33;;;;;;;7.47;1.20;;;10.40;99.90;;;;;;5092950;28;20044;-72
2022/09/18 03:18:59;;;;;;;10.88;1.52;;;10.50;99.90;;;;;;5101362;28;20042;-73
2022/09/18 03:21:26;;;;;;;10.05;1.40;;;10.50;99.90;;;;;;5111940;28;20039;-73
2022/09/18 03:23:51;;;;;;;8.75;1.33;;;10.50;99.90;;;;;;5111525;28;20040;-73
2022/09/18 03:26:17;;;;;;;11.35;1.50;;;10.50;99.90;;;;;;5100282;28;20063;-73
2022/09/18 03:28:43;;;;;;;10.05;1.38;;;10.50;99.90;;;;;;5093055;28;20040;-74
2022/09/18 03:31:09;;;;;;;6.10;0.95;;;10.40;99.90;;;;;;5091508;28;20488;-74
2022/09/18 03:33:35;;;;;;;9.68;1.50;;;10.50;99.90;;;;;;5096284;28;20054;-73
2022/09/18 03:36:01;;;;;;;5.95;1.20;;;10.50;99.90;;;;;;5115121;28;20039;-73
2022/09/18 03:38:27;;;;;;;7.90;1.27;;;10.50;99.90;;;;;;5116892;28;20514;-72
2022/09/18 03:40:52;;;;;;;7.07;1.23;;;10.50;99.90;;;;;;5115939;28;20031;-73
2022/09/18 03:43:18;;;;;;;9.35;1.55;;;10.50;99.90;;;;;;5115732;28;20576;-73
2022/09/18 03:45:44;;;;;;;8.27;1.30;;;10.60;99.90;;;;;;5116940;28;20430;-73
2022/09/18 03:48:09;;;;;;;7.75;1.45;;;10.60;99.90;;;;;;5116853;28;20130;-73
2022/09/18 03:50:35;;;;;;;7.60;1.02;;;10.70;99.90;;;;;;5114288;28;20079;-73
2022/09/18 03:53:00;;;;;;;8.38;1.58;;;10.70;99.90;;;;;;5116640;28;20047;-73
2022/09/18 03:55:26;;;;;;;6.10;1.10;;;10.70;99.90;;;;;;5097870;28;20032;-73
2022/09/18 03:57:52;;;;;;;7.93;1.40;;;10.70;99.90;;;;;;5096183;28;20442;-73
2022/09/18 04:00:18;;;;;;;5.43;1.00;;;10.80;99.90;;;;;;5095613;28;20067;-73
2022/09/18 04:02:43;;;;;;;10.65;1.33;;;10.80;99.90;;;;;;5096055;28;20082;-73
2022/09/18 04:05:10;;;;;;;7.53;1.20;;;10.70;99.90;;;;;;5110631;28;20051;-73
2022/09/18 04:07:35;;;;;;;8.98;1.30;;;10.80;99.90;;;;;;5111118;28;20498;-73
2022/09/18 04:10:02;;;;;;;5.95;1.00;;;10.80;99.90;;;;;;5087968;28;20051;-73
2022/09/18 04:12:27;;;;;;;7.10;1.08;;;10.70;99.90;;;;;;5116432;28;20043;-73
2022/09/18 04:14:56;;;;;;;7.18;1.17;;;10.80;99.90;;;;;;5147997;27;20047;-73
2022/09/18 04:17:21;;;;;;;4.85;0.90;;;10.80;99.90;;;;;;5116254;28;20104;-73
2022/09/18 04:19:47;;;;;;;6.70;1.00;;;10.70;99.90;;;;;;5113978;28;20039;-73
2022/09/18 04:22:13;;;;;;;6.55;1.27;;;10.70;99.90;;;;;;5115168;28;20479;-73
2022/09/18 04:24:39;;;;;;;9.55;2.28;;;10.70;99.90;;;;;;5114154;28;20035;-73
2022/09/18 04:27:05;;;;;;;5.53;0.98;;;10.70;99.90;;;;;;5115943;28;20555;-73
2022/09/18 04:29:31;;;;;;;7.85;0.93;;;10.70;99.90;;;;;;5115286;28;20046;-73
2022/09/18 04:31:57;;;;;;;5.47;1.20;;;10.60;99.90;;;;;;5095573;28;20036;-73
2022/09/18 04:34:23;;;;;;;5.13;1.10;;;10.60;99.90;;;;;;5102771;28;20451;-73
2022/09/18 04:36:48;;;;;;;4.82;0.85;;;10.70;99.90;;;;;;5115659;28;20036;-73
2022/09/18 04:39:14;;;;;;;7.25;1.15;;;10.70;99.90;;;;;;5115675;28;20071;-73
2022/09/18 04:41:39;;;;;;;7.72;1.13;;;10.70;99.90;;;;;;5078764;28;20077;-73
2022/09/18 04:44:06;;;;;;;8.52;1.35;;;10.80;99.90;;;;;;5099862;28;20034;-73
2022/09/18 04:46:32;;;;;;;5.60;0.95;;;10.70;99.90;;;;;;5114931;28;20040;-73
2022/09/18 04:48:58;;;;;;;6.35;1.17;;;10.70;99.90;;;;;;5115696;28;20123;-73
2022/09/18 04:51:23;;;;;;;7.10;1.33;;;10.70;99.90;;;;;;5112896;28;20127;-73
2022/09/18 04:53:49;;;;;;;7.28;1.17;;;10.70;99.90;;;;;;5114234;28;20156;-73
2022/09/18 04:56:15;;;;;;;4.93;0.85;;;10.80;99.90;;;;;;5127331;27;20040;-73
2022/09/18 04:58:40;;;;;;;6.82;1.17;;;10.70;99.90;;;;;;5094902;28;20040;-73
2022/09/18 05:01:06;;;;;;;6.65;1.02;;;10.70;99.90;;;;;;5094827;28;20123;-73
2022/09/18 05:03:31;;;;;;;9.18;1.60;;;10.70;99.90;;;;;;5094328;28;20040;-73
2022/09/18 05:05:57;;;;;;;6.68;1.10;;;10.70;99.90;;;;;;5114899;28;20054;-73
2022/09/18 05:08:23;;;;;;;7.32;1.15;;;10.70;99.90;;;;;;5115138;28;20047;-73
2022/09/18 05:10:48;;;;;;;6.75;1.30;;;10.70;99.90;;;;;;5114226;28;20031;-73
2022/09/18 05:13:14;;;;;;;7.93;0.93;;;10.70;99.90;;;;;;5148271;27;20403;-73
2022/09/18 05:15:40;;;;;;;11.00;1.60;;;10.70;99.90;;;;;;5113849;28;20042;-73
2022/09/18 05:18:06;;;;;;;7.78;0.93;;;10.70;99.90;;;;;;5115039;28;20047;-73
2022/09/18 05:20:34;;;;;;;4.97;0.80;;;10.70;99.90;;;;;;5105579;28;20036;-73
2022/09/18 05:23:00;;;;;;;7.70;1.25;;;10.70;99.90;;;;;;5097259;27;20028;-73
2022/09/18 05:25:27;;;;;;;8.02;1.20;;;10.70;99.90;;;;;;5080736;28;20118;-73
2022/09/18 05:28:02;;;;;;;6.50;1.17;;;10.60;99.90;;;;;;5094606;28;20055;-73
2022/09/18 05:30:29;;;;;;;8.30;1.23;;;10.60;99.90;;;;;;5100441;28;20043;-73
2022/09/18 05:33:00;;;;;;;7.22;1.38;;;10.60;99.90;;;;;;5113559;28;20040;-73
2022/09/18 05:35:27;;;;;;;4.55;0.73;;;10.60;99.90;;;;;;5112088;28;20044;-73
2022/09/18 05:37:54;;;;;;;6.43;1.35;;;10.60;99.90;;;;;;5114633;28;20172;-73
2022/09/18 05:40:22;;;;;;;6.35;1.20;;;10.60;99.90;;;;;;5106097;28;20039;-73
2022/09/18 05:42:49;;;;;;;9.70;1.58;;;10.80;99.90;;;;;;5092978;28;20125;-73
2022/09/18 05:45:15;;;;;;;4.03;0.80;;;10.80;99.90;;;;;;5094154;28;20036;-72
2022/09/18 05:47:41;;;;;;;6.15;1.40;;;10.90;99.90;;;;;;5094053;28;20055;-73
2022/09/18 05:50:08;;;;;;;5.28;0.80;;;10.90;99.90;;;;;;5093522;28;20028;-73
2022/09/18 05:52:34;;;;;;;7.07;0.95;;;11.00;99.90;;;;;;5103746;28;20480;-73
2022/09/18 05:54:59;;;;;;;8.30;1.10;;;10.90;99.90;;;;;;5113221;28;20046;-73
2022/09/18 05:57:25;;;;;;;8.32;1.50;;;10.90;99.90;;;;;;5113752;28;20039;-73
2022/09/18 05:59:50;;;;;;;10.85;1.20;;;10.90;99.90;;;;;;5112729;28;20811;-73
2022/09/18 06:02:16;;;;;;;5.50;1.13;;;10.80;99.90;;;;;;5112860;28;20549;-73
2022/09/18 06:04:42;;;;;;;3.17;0.60;;;10.80;99.90;;;;;;5113828;28;20044;-73
2022/09/18 06:07:07;;;;;;;3.63;0.80;;;10.80;99.90;;;;;;5114278;28;20046;-73
2022/09/18 06:09:33;;;;;;;5.35;1.00;;;10.70;99.90;;;;;;5111910;28;20037;-73
2022/09/18 06:11:58;;;;;;;5.90;0.90;;;10.70;99.90;;;;;;5112605;28;20070;-73
2022/09/18 06:14:24;;;;;;;7.00;1.00;;;10.80;99.90;;;;;;5114036;28;20111;-73
2022/09/18 06:16:50;;;;;;;3.97;0.90;;;10.80;99.90;;;;;;5092536;28;20463;-73
2022/09/18 06:19:15;;;;;;;5.15;1.10;;;10.70;99.90;;;;;;5097460;28;20055;-74
2022/09/18 06:21:41;;;;;;;8.10;1.42;;;10.80;99.90;;;;;;5106716;27;20114;-73
2022/09/18 06:24:08;;;;;;;6.03;1.00;;;10.80;99.90;;;;;;5135616;27;20032;-73
2022/09/18 06:26:34;;;;;;;8.05;1.00;;;10.80;99.90;;;;;;5093521;28;20040;-74
2022/09/18 06:29:00;;;;;;;4.30;1.00;;;10.80;99.90;;;;;;5092395;28;20044;-74
2022/09/18 06:31:25;;;;;;;6.90;1.00;;;10.80;99.90;;;;;;5095736;28;20044;-74
2022/09/18 06:33:51;;;;;;;5.45;1.13;;;10.80;99.90;;;;;;5101178;28;20089;-74
2022/09/18 06:36:17;;;;;;;6.32;1.50;;;10.80;99.90;;;;;;5091306;28;20165;-74
2022/09/18 06:38:43;;;;;;;6.40;1.00;;;11.00;99.90;;;;;;5104159;28;20038;-74
2022/09/18 06:41:08;;;;;;;6.05;0.80;;;11.00;99.90;;;;;;5097504;28;20027;-73
2022/09/18 06:43:35;;;;;;;7.55;1.15;;;11.00;99.90;;;;;;5107390;28;20635;-74
2022/09/18 06:46:01;;;;;;;4.38;1.27;;;11.00;99.90;;;;;;5102983;28;20046;-74
2022/09/18 06:48:28;;;;;;;6.07;1.05;;;11.10;99.90;;;;;;5076797;28;20040;-73
2022/09/18 06:50:55;;;;;;;5.18;1.20;;;11.10;99.90;;;;;;5108946;28;20040;-74
2022/09/18 06:53:22;;;;;;;5.90;1.20;;;11.10;99.90;;;;;;5104719;28;20054;-73
2022/09/18 06:55:48;;;;;;;9.00;1.00;;;11.10;99.90;;;;;;5095788;28;20462;-73
2022/09/18 06:58:16;;;;;;;7.40;1.17;;;11.10;99.90;;;;;;5096863;28;20357;-74
2022/09/18 07:00:42;;;;;;;6.30;1.27;;;11.10;99.90;;;;;;5107917;28;20128;-74
2022/09/18 07:03:08;;;;;;;8.85;1.10;;;11.10;99.90;;;;;;5093005;28;21825;-73
2022/09/18 07:05:33;;;;;;;9.57;1.38;;;11.10;99.90;;;;;;5106650;28;20055;-73
2022/09/18 07:08:00;;;;;;;5.10;1.10;;;11.10;99.90;;;;;;5097493;28;20490;-73
2022/09/18 07:10:26;;;;;;;6.28;1.10;;;11.10;99.90;;;;;;5114651;28;20106;-74
2022/09/18 07:12:55;;;;;;;6.40;1.10;;;11.10;99.90;;;;;;5107012;28;20114;-74
2022/09/18 07:15:21;;;;;;;6.93;0.95;;;11.10;99.90;;;;;;5106078;28;20074;-73
2022/09/18 07:17:47;;;;;;;6.95;1.13;;;11.10;99.90;;;;;;5103818;28;20496;-73
2022/09/18 07:20:13;;;;;;;4.40;0.98;;;11.10;99.90;;;;;;5117077;28;20032;-73
2022/09/18 07:22:39;;;;;;;4.50;0.80;;;11.00;99.90;;;;;;5106023;28;20552;-74
2022/09/18 07:25:06;;;;;;;7.57;1.40;;;11.10;99.90;;;;;;5144934;27;20036;-73
2022/09/18 07:27:32;;;;;;;8.18;1.00;;;11.10;99.90;;;;;;5110100;28;20032;-73
2022/09/18 07:29:58;;;;;;;6.80;1.38;;;11.10;99.90;;;;;;5111730;28;20054;-74
2022/09/18 07:32:24;;;;;;;9.45;1.10;;;11.10;99.90;;;;;;5115277;27;20543;-74
2022/09/18 07:34:50;;;;;;;6.50;1.80;;;11.10;99.90;;;;;;5120756;27;20114;-73
2022/09/18 07:37:16;;;;;;;8.00;1.20;;;11.10;99.90;;;;;;5104532;28;20119;-74
2022/09/18 07:39:43;;;;;;;6.45;1.10;;;11.10;99.90;;;;;;5107981;28;20422;-74
2022/09/18 07:42:09;;;;;;;12.18;2.08;;;11.10;99.90;;;;;;5113008;28;20040;-74
2022/09/18 07:44:35;;;;;;;5.95;0.80;;;11.10;99.90;;;;;;5107945;28;20080;-74
2022/09/18 07:47:01;;;;;;;7.00;1.05;;;11.10;99.90;;;;;;5102339;27;20055;-74
2022/09/18 07:49:26;;;;;;;6.57;1.05;;;11.10;99.90;;;;;;5116270;28;20044;-73
2022/09/18 07:51:52;;;;;;;4.38;0.85;;;11.10;99.90;;;;;;5115993;28;20031;-74
2022/09/18 07:54:18;;;;;;;4.82;1.15;;;11.10;99.90;;;;;;5116262;28;20031;-73
2022/09/18 07:56:44;;;;;;;20.25;2.65;;;11.10;99.90;;;;;;5113661;28;20088;-74
2022/09/18 07:59:10;;;;;;;10.02;1.30;;;11.10;99.90;;;;;;5110328;28;20050;-80
2022/09/18 08:01:36;;;;;;;7.18;1.10;;;11.10;99.90;;;;;;5103788;28;20126;-73
2022/09/18 08:04:02;;;;;;;8.13;1.40;;;11.10;99.90;;;;;;5095276;28;20139;-74
2022/09/18 08:06:29;;;;;;;8.18;1.30;;;11.10;99.90;;;;;;5106488;28;20093;-74
2022/09/18 08:08:55;;;;;;;9.15;1.10;;;11.10;99.90;;;;;;5097957;28;20050;-74
2022/09/18 08:11:20;;;;;;;5.75;0.90;;;11.10;99.90;;;;;;5111067;28;20039;-74
2022/09/18 08:13:49;;;;;;;6.07;1.15;;;11.10;99.90;;;;;;5111940;28;20163;-74
2022/09/18 08:16:16;;;;;;;5.78;1.25;;;11.00;99.90;;;;;;5104608;27;20040;-74
2022/09/18 08:18:41;;;;;;;6.50;1.00;;;11.00;99.90;;;;;;5101579;27;20039;-74
2022/09/18 08:21:08;;;;;;;7.68;1.23;;;11.00;99.90;;;;;;5111765;28;20046;-74
2022/09/18 08:23:34;;;;;;;8.23;1.10;;;11.00;99.90;;;;;;5109797;28;20077;-74
2022/09/18 08:26:01;;;;;;;7.25;1.23;;;11.00;99.90;;;;;;5106393;28;20074;-74
2022/09/18 08:28:26;;;;;;;7.68;1.27;;;11.00;99.90;;;;;;5113948;28;20425;-73
2022/09/18 08:30:52;;;;;;;8.07;1.20;;;11.00;99.90;;;;;;5109348;28;20036;-73
2022/09/18 08:33:18;;;;;;;6.20;0.90;;;11.10;99.90;;;;;;5083581;28;20039;-73
2022/09/18 08:35:43;;;;;;;10.65;1.33;;;11.10;99.90;;;;;;5106084;28;20091;-73
2022/09/18 08:38:10;;;;;;;8.48;1.10;;;11.10;99.90;;;;;;5098520;28;20480;-73
2022/09/18 08:40:36;;;;;;;5.97;1.42;;;11.10;99.90;;;;;;5098608;28;20547;-74
2022/09/18 08:43:38;;;;;;;6.57;1.02;;;11.10;99.90;;;;;;5107988;28;20120;-74
2022/09/18 08:46:13;;;;;;;7.43;1.25;;;11.10;99.90;;;;;;5098835;27;20078;-75
2022/09/18 08:48:56;;;;;;;5.45;0.70;;;11.10;99.90;;;;;;5111141;28;20039;-74
2022/09/18 08:51:29;;;;;;;8.82;1.13;;;11.20;99.90;;;;;;5107148;27;20038;-75
2022/09/18 08:54:12;;;;;;;5.72;0.98;;;11.20;99.90;;;;;;5106422;28;20040;-74
2022/09/18 08:56:38;;;;;;;7.78;1.10;;;11.20;99.90;;;;;;5110401;28;20047;-75
2022/09/18 08:59:13;;;;;;;5.47;0.80;;;11.20;99.90;;;;;;5111306;28;20046;-74
2022/09/18 09:01:50;;;;;;;7.80;1.40;;;11.20;99.90;;;;;;5140620;27;20040;-74
2022/09/18 09:04:27;;;;;;;5.93;0.93;;;11.20;99.90;;;;;;5113967;28;20104;-74
2022/09/18 09:07:18;;;;;;;7.15;1.20;;;11.10;99.90;;;;;;5113001;28;20442;-74
2022/09/18 09:10:12;;;;;;;6.43;1.17;;;11.20;99.90;;;;;;5094489;28;20480;-74
2022/09/18 09:13:01;;;;;;;4.55;0.80;;;11.10;99.90;;;;;;5105861;28;20096;-73
2022/09/18 09:15:49;;;;;;;5.95;1.10;;;11.20;99.90;;;;;;5112721;28;20043;-74
2022/09/18 09:18:21;;;;;;;8.73;0.90;;;11.10;99.90;;;;;;5108808;28;20453;-73
2022/09/18 09:20:53;;;;;;;5.07;0.98;;;11.10;99.90;;;;;;5114855;28;20103;-73
2022/09/18 09:23:33;;;;;;;6.03;0.90;;;11.10;99.90;;;;;;5114301;28;20500;-73
2022/09/18 09:26:09;;;;;;;4.40;1.67;;;11.10;99.90;;;;;;5111248;28;20503;-73
2022/09/18 09:28:48;;;;;;;6.70;1.00;;;11.20;99.90;;;;;;5110000;28;20051;-73
2022/09/18 09:31:17;;;;;;;3.55;0.70;;;11.20;99.90;;;;;;5125115;27;20045;-73
2022/09/18 09:34:10;;;;;;;3.88;0.82;;;11.20;99.90;;;;;;5107838;27;20032;-73
2022/09/18 09:36:37;;;;;;;4.22;0.80;;;11.20;99.90;;;;;;5094212;28;20051;-73
2022/09/18 09:39:36;;;;;;;6.40;1.15;;;11.30;99.90;;;;;;5095425;28;20027;-74
2022/09/18 09:42:20;;;;;;;5.57;1.17;;;11.30;99.90;;;;;;5101130;28;20038;-74
2022/09/18 09:45:01;;;;;;;8.07;1.20;;;11.30;99.90;;;;;;5107040;28;20491;-74
2022/09/18 09:47:41;;;;;;;6.35;1.05;;;11.30;99.90;;;;;;5113065;28;20114;-74
2022/09/18 09:50:45;;;;;;;7.25;1.08;;;11.20;99.90;;;;;;5107919;28;20071;-73
2022/09/18 09:53:12;;;;;;;5.60;1.00;;;11.30;99.90;;;;;;5094525;28;20047;-74
2022/09/18 09:56:05;;;;;;;6.47;1.00;;;11.30;99.90;;;;;;5113622;28;20084;-73
2022/09/18 09:58:43;;;;;;;3.58;1.00;;;11.20;99.90;;;;;;5102994;28;20024;-74
2022/09/18 10:01:28;;;;;;;6.03;1.00;;;11.30;99.90;;;;;;5097640;28;20106;-74
2022/09/18 10:04:12;;;;;;;6.25;1.00;;;11.20;99.90;;;;;;5111605;28;20107;-73
2022/09/18 10:07:01;;;;;;;6.57;1.10;;;11.30;99.90;;;;;;5111284;28;20032;-73
2022/09/18 10:09:57;;;;;;;8.98;1.10;;;11.30;99.90;;;;;;5112386;28;20092;-73
2022/09/18 10:12:42;;;;;;;8.90;1.63;;;11.30;99.90;;;;;;5094979;28;20053;-73
2022/09/18 10:15:18;;;;;;;6.25;0.82;;;11.20;99.90;;;;;;5113633;28;20100;-73
2022/09/18 10:17:47;;;;;;;3.88;0.88;;;11.20;99.90;;;;;;5112791;28;20483;-73
2022/09/18 10:20:17;;;;;;;8.57;1.25;;;11.20;99.90;;;;;;5100907;28;20403;-73
2022/09/18 10:22:43;;;;;;;3.85;0.82;;;11.20;99.90;;;;;;5101192;28;20553;-73
2022/09/18 10:25:26;;;;;;;7.28;0.93;;;11.20;99.90;;;;;;5098988;28;20036;-73
2022/09/18 10:27:51;;;;;;;4.82;0.98;;;11.20;99.90;;;;;;5099555;28;20522;-72
2022/09/18 10:30:17;;;;;;;7.95;1.25;;;11.20;99.90;;;;;;5096811;28;20036;-72
2022/09/18 10:32:42;;;;;;;7.90;1.10;;;11.30;99.90;;;;;;5107661;28;20572;-72
2022/09/18 10:35:28;;;;;;;7.28;1.05;;;11.20;99.90;;;;;;5104309;28;20032;-73
2022/09/18 10:37:54;;;;;;;4.60;1.02;;;11.30;99.90;;;;;;5093455;28;20048;-72
2022/09/18 10:40:31;;;;;;;6.60;0.95;;;11.30;99.90;;;;;;5097932;28;20040;-73
2022/09/18 10:42:57;;;;;;;6.53;1.30;;;11.30;99.90;;;;;;5100877;28;20429;-73
2022/09/18 10:45:26;;;;;;;5.32;0.90;;;11.40;99.90;;;;;;5098151;28;20039;-73
2022/09/18 10:48:04;;;;;;;7.00;1.08;;;11.30;99.90;;;;;;5081418;28;20495;-72
2022/09/18 10:50:30;;;;;;;5.88;0.95;;;11.30;99.90;;;;;;5099329;28;20240;-73
2022/09/18 10:53:19;;;;;;;7.78;1.20;;;11.30;99.90;;;;;;5108461;27;20106;-72
2022/09/18 10:55:49;;;;;;;6.80;1.02;;;11.40;99.90;;;;;;5119122;28;20040;-72
2022/09/18 10:58:16;;;;;;;8.95;1.10;;;11.40;99.90;;;;;;5106258;28;20035;-73
2022/09/18 11:01:05;;;;;;;8.95;1.30;;;11.50;99.90;;;;;;5116532;27;20032;-73
2022/09/18 11:03:34;;;;;;;7.53;1.45;;;11.50;99.90;;;;;;5111609;27;20080;-72
2022/09/18 11:06:06;;;;;;;7.85;1.65;;;11.60;99.90;;;;;;5113574;28;20052;-72
2022/09/18 11:08:40;;;;;;;7.78;1.05;;;11.60;99.90;;;;;;5099386;28;20048;-72
2022/09/18 11:11:20;;;;;;;8.35;1.10;;;11.70;99.90;;;;;;5103694;27;20107;-72
2022/09/18 11:13:56;;;;;;;8.50;1.23;;;11.80;99.90;;;;;;5106851;28;20046;-72
2022/09/18 11:16:30;;;;;;;6.85;1.40;;;11.80;99.90;;;;;;5107361;27;20495;-72
2022/09/18 11:19:25;;;;;;;11.10;1.50;;;11.90;99.90;;;;;;5101401;28;20067;-72
2022/09/18 11:21:54;;;;;;;8.57;1.50;;;11.90;99.90;;;;;;5105717;28;20050;-72
2022/09/18 11:24:30;;;;;;;9.13;1.10;;;11.90;99.90;;;;;;5115323;27;20051;-72
2022/09/18 11:27:00;;;;;;;5.15;1.13;;;11.90;99.90;;;;;;5120063;27;20430;-72
2022/09/18 11:29:38;;;;;;;9.68;1.50;;;11.90;99.90;;;;;;5106540;27;20093;-72
2022/09/18 11:32:12;;;;;;;10.93;1.73;;;12.00;99.90;;;;;;5116085;27;20031;-73
2022/09/18 11:34:43;;;;;;;9.50;1.77;;;12.00;99.90;;;;;;5106724;28;20027;-72
2022/09/18 11:37:21;;;;;;;7.47;1.23;;;12.10;99.90;;;;;;5116561;27;20046;-72
2022/09/18 11:39:54;;;;;;;8.73;1.38;;;12.10;99.90;;;;;;5113548;27;20494;-72
2022/09/18 11:42:20;;;;;;;11.80;2.25;;;12.20;99.90;;;;;;5102354;27;20067;-73
2022/09/18 11:44:46;;;;;;;12.05;1.63;;;12.20;99.90;;;;;;5098786;28;20502;-73
2022/09/18 11:47:26;;;;;;;9.90;1.75;;;12.20;99.90;;;;;;5099478;28;20075;-72
2022/09/18 11:50:14;;;;;;;12.02;1.48;;;12.30;99.90;;;;;;5081163;28;20047;-73
2022/09/18 11:53:22;;;;;;;7.07;1.40;;;12.40;99.90;;;;;;5099702;28;20031;-72
2022/09/18 11:56:06;;;;;;;11.35;1.38;;;12.40;99.90;;;;;;5089029;28;20045;-73
2022/09/18 11:58:44;;;;;;;8.77;1.50;;;12.40;99.90;;;;;;5079354;28;20051;-73
2022/09/18 12:01:43;;;;;;;7.82;1.40;;;12.40;99.90;;;;;;5133678;27;20127;-73
2022/09/18 12:04:25;;;;;;;6.05;1.40;;;12.50;99.90;;;;;;5095224;28;20501;-73
2022/09/18 12:07:09;;;;;;;8.25;1.35;;;12.50;99.90;;;;;;5102182;27;20055;-73
2022/09/18 12:09:56;;;;;;;10.23;1.20;;;12.50;99.90;;;;;;5100043;28;20068;-73
2022/09/18 12:12:29;;;;;;;8.02;1.50;;;12.50;99.90;;;;;;5102780;28;20130;-73
2022/09/18 12:15:09;;;;;;;11.95;1.88;;;12.60;99.90;;;;;;5103452;28;20144;-73
2022/09/18 12:17:41;;;;;;;10.98;1.42;;;12.60;99.90;;;;;;5106369;28;20043;-73
2022/09/18 12:20:25;;;;;;;;;;;12.60;99.90;;;;;;5096147;27;20068;-73
2022/09/18 12:22:55;;;;;;;10.43;1.50;;;12.60;99.90;;;;;;5094919;28;19927;-73
2022/09/18 12:25:31;;;;;;;7.03;1.33;;;12.70;99.90;;;;;;5092683;28;20040;-73
2022/09/18 12:28:21;;;;;;;8.13;1.27;;;12.70;99.90;;;;;;5087534;28;20052;-73
2022/09/18 12:31:06;;;;;;;10.13;2.00;;;12.70;99.90;;;;;;5100286;28;20122;-73
2022/09/18 12:33:37;;;;;;;10.10;1.35;;;12.70;99.90;;;;;;5101954;27;20040;-73
2022/09/18 12:36:37;;;;;;;7.57;2.20;;;12.80;99.90;;;;;;5111562;28;20048;-73
2022/09/18 12:39:20;;;;;;;9.02;1.48;;;12.80;99.90;;;;;;5072127;28;20044;-73
2022/09/18 12:41:58;;;;;;;9.85;1.30;;;12.80;99.90;;;;;;5108653;28;20039;-73
2022/09/18 12:44:47;;;;;;;8.30;1.15;;;12.80;99.90;;;;;;5095299;28;20381;-73
2022/09/18 12:47:34;;;;;;;7.72;1.55;;;12.80;99.90;;;;;;5101314;28;20039;-73
2022/09/18 12:50:34;;;;;;;9.32;1.52;;;12.90;99.90;;;;;;5100891;28;20403;-73
2022/09/18 12:53:11;;;;;;;11.02;1.60;;;12.90;99.90;;;;;;5101136;28;20476;-73
2022/09/18 12:55:55;;;;;;;9.98;1.42;;;13.00;99.90;;;;;;5100209;28;20571;-73
2022/09/18 12:58:46;;;;;;;6.55;1.20;;;13.00;99.90;;;;;;5102307;28;20518;-73
2022/09/18 13:01:33;;;;;;;5.85;0.95;;;13.20;99.90;;;;;;5098283;28;20046;-73
2022/09/18 13:04:31;;;;;;;7.30;1.15;;;13.20;99.90;;;;;;5096679;28;20055;-73
2022/09/18 13:07:21;;;;;;;7.82;1.35;;;13.10;99.90;;;;;;5045236;28;20056;-73
2022/09/18 13:09:58;;;;;;;9.23;1.00;;;13.20;99.90;;;;;;5097689;28;20139;-73
2022/09/18 13:12:55;;;;;;;8.93;1.08;;;13.20;99.90;;;;;;5079106;28;20392;-73